createdAt,value
2018-12-26T00:00:45.298Z,11.40
2018-12-26T00:03:28.092Z,11.40
2018-12-26T00:06:10.294Z,11.40
2018-12-26T00:08:53.438Z,11.50
2018-12-26T00:11:39.506Z,11.50
2018-12-26T00:14:24.609Z,11.60
2018-12-26T00:17:07.478Z,11.50
2018-12-26T00:19:50.907Z,11.50
2018-12-26T00:22:36.523Z,11.60
2018-12-26T00:25:20.972Z,11.70
2018-12-26T00:28:07.143Z,11.70
2018-12-26T00:30:52.928Z,11.80
2018-12-26T00:33:37.547Z,11.70
2018-12-26T00:36:20.047Z,11.70
2018-12-26T00:39:03.789Z,11.80
2018-12-26T00:41:46.276Z,11.80
2018-12-26T00:44:34.966Z,11.80
2018-12-26T00:47:23.050Z,11.80
2018-12-26T00:50:07.342Z,11.80
2018-12-26T00:53:00.301Z,12.00
2018-12-26T00:55:45.944Z,12.10
2018-12-26T00:58:29.941Z,11.90
2018-12-26T01:01:13.983Z,11.90
2018-12-26T01:03:58.102Z,12.00
2018-12-26T01:06:44.534Z,12.00
2018-12-26T01:09:28.118Z,11.90
2018-12-26T01:12:14.137Z,11.90
2018-12-26T01:15:01.074Z,11.80
2018-12-26T01:17:45.030Z,12.00
2018-12-26T01:20:29.692Z,12.10
2018-12-26T01:23:14.307Z,12.10
2018-12-26T01:25:57.825Z,12.00
2018-12-26T01:28:42.116Z,12.00
2018-12-26T01:31:25.917Z,11.90
2018-12-26T01:34:14.523Z,11.90
2018-12-26T01:37:17.003Z,11.80
2018-12-26T01:40:07.097Z,11.90
2018-12-26T01:42:54.060Z,12.10
2018-12-26T01:45:38.680Z,12.20
2018-12-26T01:48:22.722Z,12.10
2018-12-26T01:51:08.614Z,12.10
2018-12-26T01:53:55.424Z,12.20
2018-12-26T01:56:37.645Z,12.20
2018-12-26T01:59:21.196Z,12.20
2018-12-26T02:02:06.098Z,12.30
2018-12-26T02:04:49.803Z,12.20
2018-12-26T02:07:35.066Z,12.30
2018-12-26T02:10:21.936Z,12.40
2018-12-26T02:13:08.992Z,12.50
2018-12-26T02:15:54.908Z,12.60
2018-12-26T02:18:44.790Z,12.70
2018-12-26T02:21:36.537Z,12.60
2018-12-26T02:24:23.025Z,12.70
2018-12-26T02:27:07.040Z,12.50
2018-12-26T02:29:52.031Z,12.50
2018-12-26T02:32:37.623Z,12.50
2018-12-26T02:35:24.992Z,12.50
2018-12-26T02:38:11.497Z,12.50
2018-12-26T02:40:58.063Z,12.70
2018-12-26T02:43:43.181Z,12.80
2018-12-26T02:46:27.696Z,12.90
2018-12-26T02:49:11.072Z,12.90
2018-12-26T02:51:57.286Z,12.80
2018-12-26T02:54:42.855Z,12.80
2018-12-26T02:58:00.212Z,12.90
2018-12-26T03:00:45.191Z,13.00
2018-12-26T03:03:31.605Z,13.00
2018-12-26T03:06:16.882Z,13.00
2018-12-26T03:09:01.791Z,13.00
2018-12-26T03:11:48.644Z,12.90
2018-12-26T03:14:33.058Z,12.90
2018-12-26T03:17:33.051Z,13.00
2018-12-26T03:20:22.043Z,12.90
2018-12-26T03:23:10.020Z,12.90
2018-12-26T03:26:19.230Z,12.80
2018-12-26T03:29:04.568Z,12.90
2018-12-26T03:31:48.582Z,12.90
2018-12-26T03:34:39.660Z,12.90
2018-12-26T03:37:24.057Z,12.90
2018-12-26T03:40:10.236Z,12.90
2018-12-26T03:42:58.593Z,12.90
2018-12-26T03:45:45.193Z,13.00
2018-12-26T03:48:33.279Z,13.10
2018-12-26T03:51:18.072Z,13.10
2018-12-26T03:54:01.259Z,12.90
2018-12-26T03:56:47.135Z,12.80
2018-12-26T03:59:44.269Z,13.00
2018-12-26T04:02:30.206Z,13.10
2018-12-26T04:05:17.084Z,13.00
2018-12-26T04:08:02.004Z,13.00
2018-12-26T04:10:50.113Z,13.00
2018-12-26T04:13:32.554Z,13.10
2018-12-26T04:16:16.920Z,13.00
2018-12-26T04:19:06.228Z,13.20
2018-12-26T04:21:52.113Z,13.10
2018-12-26T04:24:42.578Z,13.00
2018-12-26T04:27:26.973Z,12.90
2018-12-26T04:30:11.943Z,13.10
2018-12-26T04:32:58.100Z,13.10
2018-12-26T04:35:42.236Z,13.10
2018-12-26T04:38:26.316Z,13.10
2018-12-26T04:41:47.103Z,13.20
2018-12-26T04:44:37.896Z,13.20
2018-12-26T04:47:23.224Z,13.30
2018-12-26T04:50:09.115Z,13.30
2018-12-26T04:52:54.136Z,13.20
2018-12-26T04:55:43.967Z,13.20
2018-12-26T04:58:29.487Z,13.20
2018-12-26T05:01:14.216Z,13.20
2018-12-26T05:04:10.328Z,13.40
2018-12-26T05:06:58.231Z,13.40
2018-12-26T05:09:46.003Z,13.30
2018-12-26T05:12:31.903Z,13.40
2018-12-26T05:15:17.124Z,13.40
2018-12-26T05:18:05.206Z,13.40
2018-12-26T05:20:49.266Z,13.40
2018-12-26T05:26:57.296Z,13.40
2018-12-26T05:29:40.681Z,13.50
2018-12-26T05:32:26.886Z,13.50
2018-12-26T05:35:14.965Z,13.50
2018-12-26T05:37:57.158Z,13.60
2018-12-26T05:40:43.319Z,13.50
2018-12-26T05:43:26.760Z,13.40
2018-12-26T05:46:09.402Z,13.50
2018-12-26T05:52:18.278Z,13.60
2018-12-26T05:55:03.298Z,13.70
2018-12-26T05:57:48.198Z,13.70
2018-12-26T06:00:34.097Z,13.80
2018-12-26T06:03:18.743Z,13.80
2018-12-26T06:06:02.307Z,13.60
2018-12-26T06:08:45.349Z,13.50
2018-12-26T06:11:31.351Z,13.50
2018-12-26T06:14:14.360Z,13.60
2018-12-26T06:17:01.709Z,13.70
2018-12-26T06:19:48.300Z,13.80
2018-12-26T06:22:35.129Z,13.70
2018-12-26T06:25:20.340Z,13.70
2018-12-26T06:28:06.222Z,13.80
2018-12-26T06:31:00.366Z,13.80
2018-12-26T06:33:48.377Z,13.70
2018-12-26T06:36:31.226Z,13.80
2018-12-26T06:39:21.388Z,13.80
2018-12-26T06:42:07.317Z,13.70
2018-12-26T06:44:53.397Z,13.70
2018-12-26T06:47:38.821Z,13.60
2018-12-26T06:50:23.193Z,13.70
2018-12-26T06:53:06.381Z,13.80
2018-12-26T06:55:57.938Z,13.90
2018-12-26T06:58:44.341Z,14.00
2018-12-26T07:01:27.041Z,14.00
2018-12-26T07:04:12.318Z,14.00
2018-12-26T07:07:00.350Z,13.90
2018-12-26T07:09:47.126Z,13.90
2018-12-26T07:12:33.008Z,13.90
2018-12-26T07:15:20.404Z,13.90
2018-12-26T07:18:07.290Z,13.80
2018-12-26T07:20:51.960Z,13.70
2018-12-26T07:23:37.806Z,13.70
2018-12-26T07:26:22.828Z,13.70
2018-12-26T07:29:06.858Z,13.70
2018-12-26T07:31:51.230Z,13.60
2018-12-26T07:34:52.768Z,13.60
2018-12-26T07:37:36.386Z,13.60
2018-12-26T07:40:22.052Z,13.70
2018-12-26T07:43:06.383Z,13.70
2018-12-26T07:45:52.304Z,13.60
2018-12-26T07:48:35.731Z,13.50
2018-12-26T07:51:29.342Z,13.40
2018-12-26T07:54:22.293Z,13.40
2018-12-26T07:57:06.915Z,13.30
2018-12-26T07:59:52.488Z,13.40
2018-12-26T08:02:37.822Z,13.40
2018-12-26T08:05:25.482Z,13.50
2018-12-26T08:08:11.412Z,13.50
2018-12-26T08:10:57.025Z,13.50
2018-12-26T08:13:43.353Z,13.50
2018-12-26T08:16:27.278Z,13.50
2018-12-26T08:19:12.480Z,13.50
2018-12-26T08:21:58.430Z,13.40
2018-12-26T08:24:41.467Z,13.50
2018-12-26T08:27:29.420Z,13.50
2018-12-26T08:30:14.263Z,13.50
2018-12-26T08:32:58.261Z,13.50
2018-12-26T08:36:02.281Z,13.50
2018-12-26T08:38:46.434Z,13.50
2018-12-26T08:41:30.430Z,13.50
2018-12-26T08:44:15.956Z,13.40
2018-12-26T08:46:59.433Z,13.40
2018-12-26T08:49:45.486Z,13.20
2018-12-26T08:52:29.068Z,13.30
2018-12-26T08:55:11.873Z,13.20
2018-12-26T08:57:54.958Z,13.30
2018-12-26T09:00:38.080Z,13.30
2018-12-26T09:03:24.276Z,13.40
2018-12-26T09:06:09.250Z,13.40
2018-12-26T09:08:53.292Z,13.30
2018-12-26T09:11:35.499Z,13.30
2018-12-26T09:14:19.849Z,13.40
2018-12-26T09:17:11.457Z,13.40
2018-12-26T09:19:59.497Z,13.40
2018-12-26T09:22:41.866Z,13.40
2018-12-26T09:25:24.407Z,13.40
2018-12-26T09:28:07.147Z,13.40
2018-12-26T09:30:51.194Z,13.40
2018-12-26T09:33:38.516Z,13.50
2018-12-26T09:36:30.219Z,13.50
2018-12-26T09:39:17.470Z,13.50
2018-12-26T09:42:01.510Z,13.50
2018-12-26T09:44:54.289Z,13.40
2018-12-26T09:48:04.119Z,13.40
2018-12-26T09:50:49.946Z,13.30
2018-12-26T09:53:47.529Z,13.30
2018-12-26T09:57:11.221Z,13.40
2018-12-26T09:59:57.487Z,13.40
2018-12-26T10:02:41.436Z,13.40
2018-12-26T10:05:34.037Z,13.40
2018-12-26T10:08:18.395Z,13.40
2018-12-26T10:11:11.535Z,13.30
2018-12-26T10:13:57.286Z,13.20
2018-12-26T10:16:43.023Z,13.20
2018-12-26T10:19:29.403Z,13.20
2018-12-26T10:22:17.975Z,13.20
2018-12-26T10:25:03.925Z,13.10
2018-12-26T10:27:47.932Z,13.20
2018-12-26T10:30:44.298Z,13.20
2018-12-26T10:33:33.874Z,13.10
2018-12-26T10:36:19.564Z,13.10
2018-12-26T10:39:09.347Z,13.10
2018-12-26T10:41:53.385Z,13.10
2018-12-26T10:44:50.350Z,13.10
2018-12-26T10:47:33.567Z,13.20
2018-12-26T10:50:21.199Z,13.20
2018-12-26T10:53:10.526Z,13.20
2018-12-26T10:55:56.307Z,13.20
2018-12-26T10:58:43.165Z,13.30
2018-12-26T11:01:29.931Z,13.20
2018-12-26T11:04:15.267Z,13.20
2018-12-26T11:07:06.367Z,13.20
2018-12-26T11:09:51.331Z,13.20
2018-12-26T11:12:42.618Z,13.20
2018-12-26T11:15:25.578Z,13.20
2018-12-26T11:18:23.090Z,13.30
2018-12-26T11:21:07.549Z,13.30
2018-12-26T11:23:52.454Z,13.30
2018-12-26T11:26:46.026Z,13.30
2018-12-26T11:29:37.559Z,13.40
2018-12-26T11:32:22.413Z,13.40
2018-12-26T11:35:09.642Z,13.40
2018-12-26T11:37:55.381Z,13.30
2018-12-26T11:40:45.258Z,13.30
2018-12-26T11:43:31.456Z,13.30
2018-12-26T11:46:27.772Z,13.20
2018-12-26T11:49:17.067Z,13.30
2018-12-26T11:52:03.260Z,13.30
2018-12-26T11:55:08.573Z,13.30
2018-12-26T11:57:55.368Z,13.30
2018-12-26T12:00:43.388Z,13.40
2018-12-26T12:03:41.440Z,13.40
2018-12-26T12:06:47.448Z,13.40
2018-12-26T12:09:35.552Z,13.30
2018-12-26T12:12:25.981Z,13.10
2018-12-26T12:15:14.025Z,13.20
2018-12-26T12:17:58.386Z,13.30
2018-12-26T12:20:54.899Z,13.30
2018-12-26T12:23:34.454Z,13.40
2018-12-26T12:26:28.323Z,13.30
2018-12-26T12:29:17.648Z,13.40
2018-12-26T12:32:04.121Z,13.30
2018-12-26T12:34:48.412Z,13.30
2018-12-26T12:37:46.649Z,13.30
2018-12-26T12:40:47.582Z,13.30
2018-12-26T12:44:02.349Z,13.40
2018-12-26T12:46:47.894Z,13.50
2018-12-26T12:49:57.434Z,13.40
2018-12-26T12:52:47.697Z,13.40
2018-12-26T12:55:42.485Z,13.40
2018-12-26T12:58:43.700Z,13.40
2018-12-26T13:01:31.693Z,13.40
2018-12-26T13:04:20.660Z,13.50
2018-12-26T13:07:16.136Z,13.50
2018-12-26T13:10:07.797Z,13.50
2018-12-26T13:12:53.090Z,13.50
2018-12-26T13:15:44.203Z,13.50
2018-12-26T13:18:49.756Z,13.50
2018-12-26T13:21:44.590Z,13.40
2018-12-26T13:24:47.716Z,13.40
2018-12-26T13:27:48.598Z,13.40
2018-12-26T13:30:32.917Z,13.50
2018-12-26T13:33:32.645Z,13.40
2018-12-26T13:36:42.831Z,13.30
2018-12-26T13:39:33.698Z,13.20
2018-12-26T13:42:27.101Z,13.10
2018-12-26T13:45:25.067Z,13.10
2018-12-26T13:48:39.275Z,13.10
2018-12-26T13:51:27.611Z,13.00
2018-12-26T13:54:26.401Z,13.10
2018-12-26T13:57:23.014Z,13.10
2018-12-26T14:00:13.097Z,13.10
2018-12-26T14:03:05.574Z,13.10
2018-12-26T14:06:04.688Z,13.00
2018-12-26T14:09:04.720Z,13.10
2018-12-26T14:11:53.696Z,13.00
2018-12-26T14:14:42.619Z,12.90
2018-12-26T14:17:49.040Z,12.90
2018-12-26T14:20:59.208Z,12.90
2018-12-26T14:24:13.983Z,12.90
2018-12-26T14:27:10.048Z,12.90
2018-12-26T14:30:11.267Z,12.90
2018-12-26T14:33:00.261Z,12.90
2018-12-26T14:36:25.466Z,12.90
2018-12-26T14:39:16.226Z,12.90
2018-12-26T14:42:03.094Z,12.80
2018-12-26T14:45:06.718Z,12.80
2018-12-26T14:48:05.553Z,12.90
2018-12-26T14:51:14.472Z,12.90
2018-12-26T14:54:13.580Z,13.00
2018-12-26T14:57:17.585Z,12.90
2018-12-26T15:00:07.208Z,12.90
2018-12-26T15:03:05.085Z,12.90
2018-12-26T15:06:05.428Z,12.90
2018-12-26T15:08:53.443Z,12.90
2018-12-26T15:11:49.167Z,12.90
2018-12-26T15:14:59.855Z,12.90
2018-12-26T15:18:18.645Z,12.80
2018-12-26T15:21:28.748Z,12.80
2018-12-26T15:25:04.195Z,12.70
2018-12-26T15:28:00.198Z,12.70
2018-12-26T15:31:03.680Z,12.60
2018-12-26T15:34:07.358Z,12.60
2018-12-26T15:37:06.701Z,12.60
2018-12-26T15:40:03.033Z,12.60
2018-12-26T15:43:15.356Z,12.70
2018-12-26T15:46:22.480Z,12.70
2018-12-26T15:49:19.801Z,12.60
2018-12-26T15:52:13.946Z,12.60
2018-12-26T15:55:07.455Z,12.60
2018-12-26T15:58:25.898Z,12.60
2018-12-26T16:01:41.650Z,12.60
2018-12-26T16:05:00.344Z,12.60
2018-12-26T16:08:32.892Z,12.60
2018-12-26T16:11:35.464Z,12.50
2018-12-26T16:14:39.193Z,12.50
2018-12-26T16:17:32.434Z,12.50
2018-12-26T16:20:29.381Z,12.60
2018-12-26T16:23:20.753Z,12.60
2018-12-26T16:26:13.708Z,12.60
2018-12-26T16:28:56.273Z,12.50
2018-12-26T16:31:42.158Z,12.50
2018-12-26T16:34:28.310Z,12.50
2018-12-26T16:37:22.547Z,12.40
2018-12-26T16:40:10.277Z,12.40
2018-12-26T16:42:59.195Z,12.40
2018-12-26T16:45:50.649Z,12.50
2018-12-26T16:48:39.857Z,12.50
2018-12-26T16:51:29.775Z,12.60
2018-12-26T16:54:16.586Z,12.50
2018-12-26T16:57:03.854Z,12.50
2018-12-26T16:59:47.810Z,12.40
2018-12-26T17:02:33.321Z,12.50
2018-12-26T17:05:19.212Z,12.50
2018-12-26T17:08:01.768Z,12.50
2018-12-26T17:10:43.910Z,12.50
2018-12-26T17:13:26.818Z,12.50
2018-12-26T17:16:09.560Z,12.40
2018-12-26T17:18:53.310Z,12.40
2018-12-26T17:21:37.660Z,12.40
2018-12-26T17:24:21.755Z,12.40
2018-12-26T17:27:07.291Z,12.40
2018-12-26T17:29:50.411Z,12.40
2018-12-26T17:32:36.659Z,12.40
2018-12-26T17:35:21.268Z,12.40
2018-12-26T17:38:06.303Z,12.40
2018-12-26T17:40:52.429Z,12.40
2018-12-26T17:43:36.887Z,12.40
2018-12-26T17:46:21.755Z,12.40
2018-12-26T17:49:04.640Z,12.40
2018-12-26T17:51:47.848Z,12.40
2018-12-26T17:54:51.453Z,12.40
2018-12-26T17:57:42.268Z,12.40
2018-12-26T18:00:48.899Z,12.40
2018-12-26T18:03:31.196Z,12.40
2018-12-26T18:06:14.316Z,12.30
2018-12-26T18:08:55.888Z,12.40
2018-12-26T18:11:42.718Z,12.40
2018-12-26T18:14:25.929Z,12.40
2018-12-26T18:17:08.730Z,12.40
2018-12-26T18:19:52.918Z,12.30
2018-12-26T18:22:37.870Z,12.30
2018-12-26T18:25:21.425Z,12.30
2018-12-26T18:28:05.928Z,12.30
2018-12-26T18:30:48.655Z,12.30
2018-12-26T18:33:31.767Z,12.30
2018-12-26T18:36:13.899Z,12.30
2018-12-26T18:39:00.094Z,12.30
2018-12-26T18:41:44.774Z,12.20
2018-12-26T18:44:26.939Z,12.20
2018-12-26T18:47:10.419Z,12.30
2018-12-26T18:49:53.280Z,12.20
2018-12-26T18:52:36.355Z,12.20
2018-12-26T18:55:19.798Z,12.20
2018-12-26T18:58:04.952Z,12.20
2018-12-26T19:00:47.619Z,12.30
2018-12-26T19:03:28.620Z,12.30
2018-12-26T19:06:11.966Z,12.30
2018-12-26T19:08:55.412Z,12.30
2018-12-26T19:11:38.238Z,12.40
2018-12-26T19:14:22.964Z,12.30
2018-12-26T19:17:05.466Z,12.20
2018-12-26T19:19:49.469Z,12.20
2018-12-26T19:22:32.319Z,12.20
2018-12-26T19:25:14.778Z,12.20
2018-12-26T19:27:58.823Z,12.10
2018-12-26T19:30:48.458Z,12.10
2018-12-26T19:33:31.838Z,12.10
2018-12-26T19:36:16.133Z,12.10
2018-12-26T19:38:58.985Z,12.10
2018-12-26T19:41:43.301Z,12.10
2018-12-26T19:44:27.131Z,12.10
2018-12-26T19:47:10.532Z,12.10
2018-12-26T19:49:51.814Z,12.00
2018-12-26T19:52:35.253Z,12.00
2018-12-26T19:55:18.786Z,12.00
2018-12-26T19:58:01.501Z,12.00
2018-12-26T20:00:45.541Z,12.00
2018-12-26T20:03:27.464Z,12.00
2018-12-26T20:06:11.843Z,12.00
2018-12-26T20:08:56.805Z,11.90
2018-12-26T20:11:42.702Z,11.90
2018-12-26T20:14:28.068Z,11.90
2018-12-26T20:17:10.791Z,11.90
2018-12-26T20:19:53.963Z,11.80
2018-12-26T20:22:36.084Z,11.80
2018-12-26T20:25:21.399Z,11.80
2018-12-26T20:28:04.782Z,11.80
2018-12-26T20:30:49.442Z,11.80
2018-12-26T20:33:33.492Z,11.80
2018-12-26T20:36:15.692Z,11.80
2018-12-26T20:39:01.042Z,11.80
2018-12-26T20:41:48.702Z,11.80
2018-12-26T20:44:31.519Z,11.70
2018-12-26T20:47:15.918Z,11.70
2018-12-26T20:49:59.919Z,11.70
2018-12-26T20:52:43.705Z,11.70
2018-12-26T20:55:27.456Z,11.70
2018-12-26T20:58:11.761Z,11.70
2018-12-26T21:00:56.470Z,11.70
2018-12-26T21:03:42.049Z,11.60
2018-12-26T21:06:29.429Z,11.60
2018-12-26T21:09:14.444Z,11.60
2018-12-26T21:11:57.870Z,11.50
2018-12-26T21:14:44.452Z,11.50
2018-12-26T21:17:30.525Z,11.60
2018-12-26T21:20:14.271Z,11.60
2018-12-26T21:22:57.749Z,11.60
2018-12-26T21:25:42.039Z,11.50
2018-12-26T21:28:27.686Z,11.50
2018-12-26T21:31:12.912Z,11.50
2018-12-26T21:33:58.062Z,11.50
2018-12-26T21:36:41.287Z,11.40
2018-12-26T21:39:23.511Z,11.50
2018-12-26T21:42:06.956Z,11.40
2018-12-26T21:44:49.809Z,11.40
2018-12-26T21:47:33.506Z,11.50
2018-12-26T21:50:16.981Z,11.40
2018-12-26T21:53:00.729Z,11.40
2018-12-26T21:55:45.080Z,11.40
2018-12-26T21:58:30.283Z,11.40
2018-12-26T22:01:13.484Z,11.30
2018-12-26T22:03:56.917Z,11.30
2018-12-26T22:06:39.381Z,11.30
2018-12-26T22:09:25.090Z,11.30
2018-12-26T22:12:12.733Z,11.30
2018-12-26T22:14:56.480Z,11.30
2018-12-26T22:17:38.162Z,11.30
2018-12-26T22:20:25.495Z,11.30
2018-12-26T22:23:12.002Z,11.30
2018-12-26T22:25:55.061Z,11.40
2018-12-26T22:28:37.952Z,11.30
2018-12-26T22:34:22.927Z,11.40
2018-12-26T22:37:06.981Z,11.40
2018-12-26T22:39:49.791Z,11.30
2018-12-26T22:42:32.116Z,11.30
2018-12-26T22:45:16.130Z,11.30
2018-12-26T22:48:04.120Z,11.30
2018-12-26T22:50:49.946Z,11.30
2018-12-26T22:53:35.590Z,11.30
2018-12-26T22:56:21.761Z,11.30
2018-12-26T22:59:06.212Z,11.40
2018-12-26T23:01:49.845Z,11.30
2018-12-26T23:04:32.063Z,11.40
2018-12-26T23:07:15.439Z,11.50
2018-12-26T23:09:58.566Z,11.50
2018-12-26T23:12:44.803Z,11.50
2018-12-26T23:15:28.179Z,11.50
2018-12-26T23:18:13.563Z,11.50
2018-12-26T23:20:59.216Z,11.60
2018-12-26T23:23:47.157Z,11.70
2018-12-26T23:26:29.959Z,11.70
2018-12-26T23:29:14.615Z,11.50
2018-12-26T23:31:58.627Z,11.50
2018-12-26T23:34:46.969Z,11.50
2018-12-26T23:37:29.478Z,11.50
2018-12-26T23:40:13.829Z,11.50
2018-12-26T23:43:02.529Z,11.60
2018-12-26T23:45:46.184Z,11.60
2018-12-26T23:48:29.170Z,11.50
2018-12-26T23:51:18.048Z,11.50
2018-12-26T23:54:04.872Z,11.50
2018-12-26T23:56:56.218Z,11.50
2018-12-26T23:59:43.096Z,11.70
